sensor_id;sensor_type;location;lat;lon;timestamp;temperature;humidity
54006;DHT22;39919;38.160;-122.260;2023-01-19T00:01:33;14.10;78.20
54006;DHT22;39919;38.160;-122.260;2023-01-19T00:04:04;14.00;78.10
54006;DHT22;39919;38.160;-122.260;2023-01-19T00:06:33;14.00;78.50
54006;DHT22;39919;38.160;-122.260;2023-01-19T00:09:05;13.90;78.60
54006;DHT22;39919;38.160;-122.260;2023-01-19T00:11:34;13.90;78.90
54006;DHT22;39919;38.160;-122.260;2023-01-19T00:14:03;13.80;79.40
54006;DHT22;39919;38.160;-122.260;2023-01-19T00:16:32;13.70;80.30
54006;DHT22;39919;38.160;-122.260;2023-01-19T00:19:07;13.70;80.90
54006;DHT22;39919;38.160;-122.260;2023-01-19T00:21:46;13.60;81.10
54006;DHT22;39919;38.160;-122.260;2023-01-19T00:24:15;13.50;81.90
54006;DHT22;39919;38.160;-122.260;2023-01-19T00:26:47;13.50;82.10
54006;DHT22;39919;38.160;-122.260;2023-01-19T00:29:17;13.50;82.70
54006;DHT22;39919;38.160;-122.260;2023-01-19T00:31:46;13.40;83.20
54006;DHT22;39919;38.160;-122.260;2023-01-19T00:34:17;13.40;84.00
54006;DHT22;39919;38.160;-122.260;2023-01-19T00:36:46;13.40;84.20
54006;DHT22;39919;38.160;-122.260;2023-01-19T00:39:15;13.30;84.60
54006;DHT22;39919;38.160;-122.260;2023-01-19T00:41:45;13.30;85.50
54006;DHT22;39919;38.160;-122.260;2023-01-19T00:44:30;13.20;86.10
54006;DHT22;39919;38.160;-122.260;2023-01-19T00:46:59;13.20;86.70
54006;DHT22;39919;38.160;-122.260;2023-01-19T00:49:32;13.10;86.80
54006;DHT22;39919;38.160;-122.260;2023-01-19T00:52:01;13.00;87.60
54006;DHT22;39919;38.160;-122.260;2023-01-19T00:54:30;13.00;88.10
54006;DHT22;39919;38.160;-122.260;2023-01-19T00:56:59;12.90;88.90
54006;DHT22;39919;38.160;-122.260;2023-01-19T00:59:31;12.90;89.20
54006;DHT22;39919;38.160;-122.260;2023-01-19T01:02:00;12.80;90.00
54006;DHT22;39919;38.160;-122.260;2023-01-19T01:04:31;12.80;90.20
54006;DHT22;39919;38.160;-122.260;2023-01-19T01:07:02;12.70;90.90
54006;DHT22;39919;38.160;-122.260;2023-01-19T01:09:31;12.70;91.20
54006;DHT22;39919;38.160;-122.260;2023-01-19T01:12:00;12.60;91.80
54006;DHT22;39919;38.160;-122.260;2023-01-19T01:14:29;12.60;91.90
54006;DHT22;39919;38.160;-122.260;2023-01-19T01:17:15;12.60;92.20
54006;DHT22;39919;38.160;-122.260;2023-01-19T01:19:53;12.60;92.70
54006;DHT22;39919;38.160;-122.260;2023-01-19T01:22:22;12.50;93.00
54006;DHT22;39919;38.160;-122.260;2023-01-19T01:24:53;12.50;93.90
54006;DHT22;39919;38.160;-122.260;2023-01-19T01:27:22;12.40;94.60
54006;DHT22;39919;38.160;-122.260;2023-01-19T01:29:52;12.40;95.50
54006;DHT22;39919;38.160;-122.260;2023-01-19T01:32:22;12.30;95.30
54006;DHT22;39919;38.160;-122.260;2023-01-19T01:34:53;12.30;95.80
54006;DHT22;39919;38.160;-122.260;2023-01-19T01:37:22;12.30;95.90
54006;DHT22;39919;38.160;-122.260;2023-01-19T01:39:51;12.30;96.20
54006;DHT22;39919;38.160;-122.260;2023-01-19T01:42:26;12.20;96.40
54006;DHT22;39919;38.160;-122.260;2023-01-19T01:44:56;12.20;96.80
54006;DHT22;39919;38.160;-122.260;2023-01-19T01:47:29;12.10;97.40
54006;DHT22;39919;38.160;-122.260;2023-01-19T01:50:07;12.10;97.80
54006;DHT22;39919;38.160;-122.260;2023-01-19T01:52:41;12.10;97.70
54006;DHT22;39919;38.160;-122.260;2023-01-19T01:55:12;12.10;98.00
54006;DHT22;39919;38.160;-122.260;2023-01-19T01:57:47;12.10;97.90
54006;DHT22;39919;38.160;-122.260;2023-01-19T02:00:21;12.10;97.80
54006;DHT22;39919;38.160;-122.260;2023-01-19T02:02:50;12.10;97.80
54006;DHT22;39919;38.160;-122.260;2023-01-19T02:05:23;12.00;98.00
54006;DHT22;39919;38.160;-122.260;2023-01-19T02:07:56;12.00;98.00
54006;DHT22;39919;38.160;-122.260;2023-01-19T02:10:44;12.00;97.90
54006;DHT22;39919;38.160;-122.260;2023-01-19T02:13:36;12.00;97.70
54006;DHT22;39919;38.160;-122.260;2023-01-19T02:16:07;12.00;97.60
54006;DHT22;39919;38.160;-122.260;2023-01-19T02:18:37;12.00;97.40
54006;DHT22;39919;38.160;-122.260;2023-01-19T02:21:12;12.00;97.00
54006;DHT22;39919;38.160;-122.260;2023-01-19T02:23:47;12.00;96.80
54006;DHT22;39919;38.160;-122.260;2023-01-19T02:26:20;12.00;96.90
54006;DHT22;39919;38.160;-122.260;2023-01-19T02:28:52;12.00;96.80
54006;DHT22;39919;38.160;-122.260;2023-01-19T02:31:38;12.00;96.70
54006;DHT22;39919;38.160;-122.260;2023-01-19T02:34:10;12.10;96.70
54006;DHT22;39919;38.160;-122.260;2023-01-19T02:36:45;12.00;96.80
54006;DHT22;39919;38.160;-122.260;2023-01-19T02:39:21;12.00;96.80
54006;DHT22;39919;38.160;-122.260;2023-01-19T02:41:59;12.10;96.80
54006;DHT22;39919;38.160;-122.260;2023-01-19T02:44:31;12.10;97.10
54006;DHT22;39919;38.160;-122.260;2023-01-19T02:47:01;12.10;97.10
54006;DHT22;39919;38.160;-122.260;2023-01-19T02:49:33;12.10;97.20
54006;DHT22;39919;38.160;-122.260;2023-01-19T02:52:03;12.10;97.40
54006;DHT22;39919;38.160;-122.260;2023-01-19T02:54:41;12.00;97.40
54006;DHT22;39919;38.160;-122.260;2023-01-19T02:57:42;12.10;97.40
54006;DHT22;39919;38.160;-122.260;2023-01-19T03:00:25;12.10;97.30
54006;DHT22;39919;38.160;-122.260;2023-01-19T03:03:10;12.10;97.10
54006;DHT22;39919;38.160;-122.260;2023-01-19T03:05:52;12.10;97.00
54006;DHT22;39919;38.160;-122.260;2023-01-19T03:08:38;12.10;96.70
54006;DHT22;39919;38.160;-122.260;2023-01-19T03:11:12;12.10;96.60
54006;DHT22;39919;38.160;-122.260;2023-01-19T03:13:44;12.10;96.50
54006;DHT22;39919;38.160;-122.260;2023-01-19T03:16:19;12.10;96.30
54006;DHT22;39919;38.160;-122.260;2023-01-19T03:18:51;12.10;96.40
54006;DHT22;39919;38.160;-122.260;2023-01-19T03:21:26;12.10;96.40
54006;DHT22;39919;38.160;-122.260;2023-01-19T03:23:59;12.10;96.50
54006;DHT22;39919;38.160;-122.260;2023-01-19T03:26:35;12.10;96.50
54006;DHT22;39919;38.160;-122.260;2023-01-19T03:29:07;12.10;96.70
54006;DHT22;39919;38.160;-122.260;2023-01-19T03:31:36;12.10;97.40
54006;DHT22;39919;38.160;-122.260;2023-01-19T03:34:10;12.10;98.00
54006;DHT22;39919;38.160;-122.260;2023-01-19T03:36:43;12.10;99.00
54006;DHT22;39919;38.160;-122.260;2023-01-19T03:39:16;12.10;99.30
54006;DHT22;39919;38.160;-122.260;2023-01-19T03:41:50;12.10;99.90
54006;DHT22;39919;38.160;-122.260;2023-01-19T03:44:21;12.10;99.90
54006;DHT22;39919;38.160;-122.260;2023-01-19T03:46:51;12.10;99.90
54006;DHT22;39919;38.160;-122.260;2023-01-19T03:49:21;12.10;99.90
54006;DHT22;39919;38.160;-122.260;2023-01-19T03:51:50;12.00;99.90
54006;DHT22;39919;38.160;-122.260;2023-01-19T03:54:24;12.00;99.90
54006;DHT22;39919;38.160;-122.260;2023-01-19T03:56:55;12.10;99.90
54006;DHT22;39919;38.160;-122.260;2023-01-19T03:59:25;12.00;99.90
54006;DHT22;39919;38.160;-122.260;2023-01-19T04:01:54;12.00;99.90
54006;DHT22;39919;38.160;-122.260;2023-01-19T04:04:23;12.00;99.90
54006;DHT22;39919;38.160;-122.260;2023-01-19T04:06:52;12.00;99.90
54006;DHT22;39919;38.160;-122.260;2023-01-19T04:09:21;12.00;99.90
54006;DHT22;39919;38.160;-122.260;2023-01-19T04:11:51;12.00;99.90
54006;DHT22;39919;38.160;-122.260;2023-01-19T04:14:25;12.00;99.90
54006;DHT22;39919;38.160;-122.260;2023-01-19T04:16:54;12.00;99.90
54006;DHT22;39919;38.160;-122.260;2023-01-19T04:19:23;12.00;99.90
54006;DHT22;39919;38.160;-122.260;2023-01-19T04:21:52;12.00;99.90
54006;DHT22;39919;38.160;-122.260;2023-01-19T04:24:25;12.00;99.90
54006;DHT22;39919;38.160;-122.260;2023-01-19T04:26:54;12.00;99.90
54006;DHT22;39919;38.160;-122.260;2023-01-19T04:29:25;12.00;99.90
54006;DHT22;39919;38.160;-122.260;2023-01-19T04:31:55;12.00;99.90
54006;DHT22;39919;38.160;-122.260;2023-01-19T04:34:24;12.00;99.90
54006;DHT22;39919;38.160;-122.260;2023-01-19T04:36:53;12.00;99.90
54006;DHT22;39919;38.160;-122.260;2023-01-19T04:39:27;12.00;99.90
54006;DHT22;39919;38.160;-122.260;2023-01-19T04:41:57;12.00;99.90
54006;DHT22;39919;38.160;-122.260;2023-01-19T04:44:28;12.00;99.90
54006;DHT22;39919;38.160;-122.260;2023-01-19T04:47:00;12.00;99.90
54006;DHT22;39919;38.160;-122.260;2023-01-19T04:49:29;12.00;99.90
54006;DHT22;39919;38.160;-122.260;2023-01-19T04:51:58;12.00;99.90
54006;DHT22;39919;38.160;-122.260;2023-01-19T04:54:28;11.90;99.90
54006;DHT22;39919;38.160;-122.260;2023-01-19T04:56:59;11.90;99.90
54006;DHT22;39919;38.160;-122.260;2023-01-19T04:59:30;11.90;99.90
54006;DHT22;39919;38.160;-122.260;2023-01-19T05:01:59;11.90;99.90
54006;DHT22;39919;38.160;-122.260;2023-01-19T05:04:29;11.90;99.90
54006;DHT22;39919;38.160;-122.260;2023-01-19T05:06:58;11.90;99.90
54006;DHT22;39919;38.160;-122.260;2023-01-19T05:09:27;11.80;99.90
54006;DHT22;39919;38.160;-122.260;2023-01-19T05:11:56;11.80;99.90
54006;DHT22;39919;38.160;-122.260;2023-01-19T05:14:26;11.80;99.90
54006;DHT22;39919;38.160;-122.260;2023-01-19T05:16:56;11.80;99.90
54006;DHT22;39919;38.160;-122.260;2023-01-19T05:19:26;11.80;99.90
54006;DHT22;39919;38.160;-122.260;2023-01-19T05:21:55;11.80;99.90
54006;DHT22;39919;38.160;-122.260;2023-01-19T05:24:24;11.80;99.90
54006;DHT22;39919;38.160;-122.260;2023-01-19T05:26:54;11.80;99.90
54006;DHT22;39919;38.160;-122.260;2023-01-19T05:29:25;11.80;99.90
54006;DHT22;39919;38.160;-122.260;2023-01-19T05:31:56;11.80;99.90
54006;DHT22;39919;38.160;-122.260;2023-01-19T05:34:28;11.80;99.90
54006;DHT22;39919;38.160;-122.260;2023-01-19T05:36:57;11.80;99.90
54006;DHT22;39919;38.160;-122.260;2023-01-19T05:39:26;11.70;99.90
54006;DHT22;39919;38.160;-122.260;2023-01-19T05:41:56;11.70;99.90
54006;DHT22;39919;38.160;-122.260;2023-01-19T05:44:25;11.80;99.90
54006;DHT22;39919;38.160;-122.260;2023-01-19T05:46:57;11.80;99.90
54006;DHT22;39919;38.160;-122.260;2023-01-19T05:49:26;11.80;99.90
54006;DHT22;39919;38.160;-122.260;2023-01-19T05:51:56;11.80;99.90
54006;DHT22;39919;38.160;-122.260;2023-01-19T05:54:25;11.80;99.90
54006;DHT22;39919;38.160;-122.260;2023-01-19T05:56:54;11.70;99.90
54006;DHT22;39919;38.160;-122.260;2023-01-19T05:59:24;11.70;99.90
54006;DHT22;39919;38.160;-122.260;2023-01-19T06:01:53;11.70;99.90
54006;DHT22;39919;38.160;-122.260;2023-01-19T06:04:24;11.60;99.90
54006;DHT22;39919;38.160;-122.260;2023-01-19T06:06:57;11.60;99.90
54006;DHT22;39919;38.160;-122.260;2023-01-19T06:09:30;11.60;99.90
54006;DHT22;39919;38.160;-122.260;2023-01-19T06:12:00;11.60;99.90
54006;DHT22;39919;38.160;-122.260;2023-01-19T06:14:29;11.60;99.90
54006;DHT22;39919;38.160;-122.260;2023-01-19T06:16:58;11.50;99.90
54006;DHT22;39919;38.160;-122.260;2023-01-19T06:19:33;11.50;99.90
54006;DHT22;39919;38.160;-122.260;2023-01-19T06:22:03;11.50;99.90
54006;DHT22;39919;38.160;-122.260;2023-01-19T06:24:32;11.50;99.90
54006;DHT22;39919;38.160;-122.260;2023-01-19T06:27:04;11.50;99.90
54006;DHT22;39919;38.160;-122.260;2023-01-19T06:29:35;11.40;99.90
54006;DHT22;39919;38.160;-122.260;2023-01-19T06:32:13;11.40;99.90
54006;DHT22;39919;38.160;-122.260;2023-01-19T06:34:45;11.40;99.90
54006;DHT22;39919;38.160;-122.260;2023-01-19T06:37:20;11.40;99.90
54006;DHT22;39919;38.160;-122.260;2023-01-19T06:39:54;11.40;99.90
54006;DHT22;39919;38.160;-122.260;2023-01-19T06:42:26;11.40;99.90
54006;DHT22;39919;38.160;-122.260;2023-01-19T06:44:56;11.30;99.90
54006;DHT22;39919;38.160;-122.260;2023-01-19T06:47:28;11.30;99.90
54006;DHT22;39919;38.160;-122.260;2023-01-19T06:50:01;11.30;99.90
54006;DHT22;39919;38.160;-122.260;2023-01-19T06:52:31;11.30;99.90
54006;DHT22;39919;38.160;-122.260;2023-01-19T06:55:00;11.20;99.90
54006;DHT22;39919;38.160;-122.260;2023-01-19T06:57:30;11.20;99.90
54006;DHT22;39919;38.160;-122.260;2023-01-19T06:59:59;11.20;99.90
54006;DHT22;39919;38.160;-122.260;2023-01-19T07:02:33;11.20;99.90
54006;DHT22;39919;38.160;-122.260;2023-01-19T07:05:05;11.10;99.90
54006;DHT22;39919;38.160;-122.260;2023-01-19T07:07:35;11.10;99.90
54006;DHT22;39919;38.160;-122.260;2023-01-19T07:10:09;11.00;99.90
54006;DHT22;39919;38.160;-122.260;2023-01-19T07:12:41;11.00;99.90
54006;DHT22;39919;38.160;-122.260;2023-01-19T07:15:14;11.00;99.90
54006;DHT22;39919;38.160;-122.260;2023-01-19T07:17:46;10.90;99.90
54006;DHT22;39919;38.160;-122.260;2023-01-19T07:20:17;10.90;99.90
54006;DHT22;39919;38.160;-122.260;2023-01-19T07:22:46;10.80;99.90
54006;DHT22;39919;38.160;-122.260;2023-01-19T07:25:26;10.70;99.90
54006;DHT22;39919;38.160;-122.260;2023-01-19T07:27:57;10.70;99.90
54006;DHT22;39919;38.160;-122.260;2023-01-19T07:30:29;10.70;99.90
54006;DHT22;39919;38.160;-122.260;2023-01-19T07:33:00;10.60;99.90
54006;DHT22;39919;38.160;-122.260;2023-01-19T07:35:31;10.60;99.90
54006;DHT22;39919;38.160;-122.260;2023-01-19T07:38:00;10.50;99.90
54006;DHT22;39919;38.160;-122.260;2023-01-19T07:40:30;10.50;99.90
54006;DHT22;39919;38.160;-122.260;2023-01-19T07:42:59;10.40;99.90
54006;DHT22;39919;38.160;-122.260;2023-01-19T07:45:28;10.40;99.90
54006;DHT22;39919;38.160;-122.260;2023-01-19T07:47:57;10.30;99.90
54006;DHT22;39919;38.160;-122.260;2023-01-19T07:50:27;10.30;99.90
54006;DHT22;39919;38.160;-122.260;2023-01-19T07:53:04;10.20;99.90
54006;DHT22;39919;38.160;-122.260;2023-01-19T07:55:35;10.20;99.90
54006;DHT22;39919;38.160;-122.260;2023-01-19T07:58:04;10.10;99.90
54006;DHT22;39919;38.160;-122.260;2023-01-19T08:00:34;10.10;99.90
54006;DHT22;39919;38.160;-122.260;2023-01-19T08:03:05;10.00;99.90
54006;DHT22;39919;38.160;-122.260;2023-01-19T08:05:35;10.00;99.90
54006;DHT22;39919;38.160;-122.260;2023-01-19T08:08:08;10.00;99.90
54006;DHT22;39919;38.160;-122.260;2023-01-19T08:10:38;9.90;99.90
54006;DHT22;39919;38.160;-122.260;2023-01-19T08:13:07;9.90;99.90
54006;DHT22;39919;38.160;-122.260;2023-01-19T08:15:36;9.80;99.90
54006;DHT22;39919;38.160;-122.260;2023-01-19T08:18:06;9.70;99.90
54006;DHT22;39919;38.160;-122.260;2023-01-19T08:20:35;9.70;99.90
54006;DHT22;39919;38.160;-122.260;2023-01-19T08:23:06;9.60;99.90
54006;DHT22;39919;38.160;-122.260;2023-01-19T08:25:37;9.50;99.90
54006;DHT22;39919;38.160;-122.260;2023-01-19T08:28:08;9.50;99.90
54006;DHT22;39919;38.160;-122.260;2023-01-19T08:30:37;9.40;99.90
54006;DHT22;39919;38.160;-122.260;2023-01-19T08:33:06;9.30;99.90
54006;DHT22;39919;38.160;-122.260;2023-01-19T08:35:37;9.30;99.90
54006;DHT22;39919;38.160;-122.260;2023-01-19T08:38:09;9.20;99.90
54006;DHT22;39919;38.160;-122.260;2023-01-19T08:40:39;9.20;99.90
54006;DHT22;39919;38.160;-122.260;2023-01-19T08:43:10;9.10;99.90
54006;DHT22;39919;38.160;-122.260;2023-01-19T08:45:41;9.00;99.90
54006;DHT22;39919;38.160;-122.260;2023-01-19T08:48:14;9.00;99.90
54006;DHT22;39919;38.160;-122.260;2023-01-19T08:50:45;8.90;99.90
54006;DHT22;39919;38.160;-122.260;2023-01-19T08:53:16;8.90;99.90
54006;DHT22;39919;38.160;-122.260;2023-01-19T08:55:46;8.80;99.90
54006;DHT22;39919;38.160;-122.260;2023-01-19T08:58:16;8.70;99.90
54006;DHT22;39919;38.160;-122.260;2023-01-19T09:00:45;8.70;99.90
54006;DHT22;39919;38.160;-122.260;2023-01-19T09:03:14;8.60;99.90
54006;DHT22;39919;38.160;-122.260;2023-01-19T09:05:44;8.60;99.90
54006;DHT22;39919;38.160;-122.260;2023-01-19T09:08:15;8.50;99.90
54006;DHT22;39919;38.160;-122.260;2023-01-19T09:10:46;8.40;99.90
54006;DHT22;39919;38.160;-122.260;2023-01-19T09:13:15;8.40;99.90
54006;DHT22;39919;38.160;-122.260;2023-01-19T09:15:44;8.30;99.90
54006;DHT22;39919;38.160;-122.260;2023-01-19T09:18:15;8.30;99.90
54006;DHT22;39919;38.160;-122.260;2023-01-19T09:20:47;8.20;99.90
54006;DHT22;39919;38.160;-122.260;2023-01-19T09:23:19;8.20;99.90
54006;DHT22;39919;38.160;-122.260;2023-01-19T09:25:54;8.20;99.90
54006;DHT22;39919;38.160;-122.260;2023-01-19T09:28:23;8.10;99.90
54006;DHT22;39919;38.160;-122.260;2023-01-19T09:30:56;8.10;99.90
54006;DHT22;39919;38.160;-122.260;2023-01-19T09:33:25;8.00;99.90
54006;DHT22;39919;38.160;-122.260;2023-01-19T09:35:55;8.00;99.90
54006;DHT22;39919;38.160;-122.260;2023-01-19T09:38:26;7.90;99.90
54006;DHT22;39919;38.160;-122.260;2023-01-19T09:40:57;7.90;99.90
54006;DHT22;39919;38.160;-122.260;2023-01-19T09:43:36;7.90;99.90
54006;DHT22;39919;38.160;-122.260;2023-01-19T09:46:12;7.80;99.90
54006;DHT22;39919;38.160;-122.260;2023-01-19T09:48:46;7.70;99.90
54006;DHT22;39919;38.160;-122.260;2023-01-19T09:51:19;7.80;99.90
54006;DHT22;39919;38.160;-122.260;2023-01-19T09:53:59;7.70;99.90
54006;DHT22;39919;38.160;-122.260;2023-01-19T09:56:31;7.60;99.90
54006;DHT22;39919;38.160;-122.260;2023-01-19T09:59:02;7.60;99.90
54006;DHT22;39919;38.160;-122.260;2023-01-19T10:01:50;7.50;99.90
54006;DHT22;39919;38.160;-122.260;2023-01-19T10:04:27;7.50;99.90
54006;DHT22;39919;38.160;-122.260;2023-01-19T10:07:14;7.50;99.90
54006;DHT22;39919;38.160;-122.260;2023-01-19T10:10:00;7.40;99.90
54006;DHT22;39919;38.160;-122.260;2023-01-19T10:12:39;7.40;99.90
54006;DHT22;39919;38.160;-122.260;2023-01-19T10:15:17;7.30;99.90
54006;DHT22;39919;38.160;-122.260;2023-01-19T10:17:55;7.20;99.90
54006;DHT22;39919;38.160;-122.260;2023-01-19T10:20:31;7.20;99.90
54006;DHT22;39919;38.160;-122.260;2023-01-19T10:23:12;7.20;99.90
54006;DHT22;39919;38.160;-122.260;2023-01-19T10:25:56;7.10;99.90
54006;DHT22;39919;38.160;-122.260;2023-01-19T10:28:28;7.10;99.90
54006;DHT22;39919;38.160;-122.260;2023-01-19T10:31:00;7.00;99.90
54006;DHT22;39919;38.160;-122.260;2023-01-19T10:33:31;7.00;99.90
54006;DHT22;39919;38.160;-122.260;2023-01-19T10:36:09;6.90;99.90
54006;DHT22;39919;38.160;-122.260;2023-01-19T10:38:48;6.90;99.90
54006;DHT22;39919;38.160;-122.260;2023-01-19T10:41:22;6.90;99.90
54006;DHT22;39919;38.160;-122.260;2023-01-19T10:43:59;6.80;99.90
54006;DHT22;39919;38.160;-122.260;2023-01-19T10:46:35;6.80;99.90
54006;DHT22;39919;38.160;-122.260;2023-01-19T10:49:05;6.80;99.90
54006;DHT22;39919;38.160;-122.260;2023-01-19T10:51:46;6.70;99.90
54006;DHT22;39919;38.160;-122.260;2023-01-19T10:54:16;6.70;99.90
54006;DHT22;39919;38.160;-122.260;2023-01-19T10:56:50;6.60;99.90
54006;DHT22;39919;38.160;-122.260;2023-01-19T10:59:33;6.60;99.90
54006;DHT22;39919;38.160;-122.260;2023-01-19T11:02:16;6.60;99.90
54006;DHT22;39919;38.160;-122.260;2023-01-19T11:04:46;6.50;99.90
54006;DHT22;39919;38.160;-122.260;2023-01-19T11:07:18;6.50;99.90
54006;DHT22;39919;38.160;-122.260;2023-01-19T11:09:49;6.50;99.90
54006;DHT22;39919;38.160;-122.260;2023-01-19T11:12:22;6.50;99.90
54006;DHT22;39919;38.160;-122.260;2023-01-19T11:14:52;6.40;99.90
54006;DHT22;39919;38.160;-122.260;2023-01-19T11:17:24;6.40;99.90
54006;DHT22;39919;38.160;-122.260;2023-01-19T11:19:59;6.40;99.90
54006;DHT22;39919;38.160;-122.260;2023-01-19T11:22:30;6.40;99.90
54006;DHT22;39919;38.160;-122.260;2023-01-19T11:25:01;6.40;99.90
54006;DHT22;39919;38.160;-122.260;2023-01-19T11:27:36;6.40;99.90
54006;DHT22;39919;38.160;-122.260;2023-01-19T11:30:13;6.30;99.90
54006;DHT22;39919;38.160;-122.260;2023-01-19T11:32:48;6.40;99.90
54006;DHT22;39919;38.160;-122.260;2023-01-19T11:35:34;6.30;99.90
54006;DHT22;39919;38.160;-122.260;2023-01-19T11:38:17;6.30;99.90
54006;DHT22;39919;38.160;-122.260;2023-01-19T11:40:52;6.30;99.90
54006;DHT22;39919;38.160;-122.260;2023-01-19T11:43:26;6.30;99.90
54006;DHT22;39919;38.160;-122.260;2023-01-19T11:45:57;6.20;99.90
54006;DHT22;39919;38.160;-122.260;2023-01-19T11:48:31;6.20;99.90
54006;DHT22;39919;38.160;-122.260;2023-01-19T11:51:04;6.20;99.90
54006;DHT22;39919;38.160;-122.260;2023-01-19T11:53:40;6.20;99.90
54006;DHT22;39919;38.160;-122.260;2023-01-19T11:56:12;6.20;99.90
54006;DHT22;39919;38.160;-122.260;2023-01-19T11:58:45;6.20;99.90
54006;DHT22;39919;38.160;-122.260;2023-01-19T12:01:19;6.10;99.90
54006;DHT22;39919;38.160;-122.260;2023-01-19T12:03:56;6.10;99.90
54006;DHT22;39919;38.160;-122.260;2023-01-19T12:06:29;6.10;99.90
54006;DHT22;39919;38.160;-122.260;2023-01-19T12:09:02;6.00;99.90
54006;DHT22;39919;38.160;-122.260;2023-01-19T12:11:36;6.00;99.90
54006;DHT22;39919;38.160;-122.260;2023-01-19T12:14:15;6.00;99.90
54006;DHT22;39919;38.160;-122.260;2023-01-19T12:16:46;6.00;99.90
54006;DHT22;39919;38.160;-122.260;2023-01-19T12:19:18;5.90;99.90
54006;DHT22;39919;38.160;-122.260;2023-01-19T12:21:50;5.90;99.90
54006;DHT22;39919;38.160;-122.260;2023-01-19T12:24:25;5.80;99.90
54006;DHT22;39919;38.160;-122.260;2023-01-19T12:26:59;5.80;99.90
54006;DHT22;39919;38.160;-122.260;2023-01-19T12:29:33;5.80;99.90
54006;DHT22;39919;38.160;-122.260;2023-01-19T12:32:28;5.70;99.90
54006;DHT22;39919;38.160;-122.260;2023-01-19T12:35:00;5.70;99.90
54006;DHT22;39919;38.160;-122.260;2023-01-19T12:37:37;5.60;99.90
54006;DHT22;39919;38.160;-122.260;2023-01-19T12:40:26;5.60;99.90
54006;DHT22;39919;38.160;-122.260;2023-01-19T12:43:04;5.60;99.90
54006;DHT22;39919;38.160;-122.260;2023-01-19T12:45:38;5.50;99.90
54006;DHT22;39919;38.160;-122.260;2023-01-19T12:48:23;5.50;99.90
54006;DHT22;39919;38.160;-122.260;2023-01-19T12:50:52;5.40;99.90
54006;DHT22;39919;38.160;-122.260;2023-01-19T12:53:22;5.40;99.90
54006;DHT22;39919;38.160;-122.260;2023-01-19T12:55:58;5.40;99.90
54006;DHT22;39919;38.160;-122.260;2023-01-19T12:58:28;5.40;99.90
54006;DHT22;39919;38.160;-122.260;2023-01-19T13:01:15;5.30;99.90
54006;DHT22;39919;38.160;-122.260;2023-01-19T13:07:07;5.30;99.90
54006;DHT22;39919;38.160;-122.260;2023-01-19T13:09:39;5.20;99.90
54006;DHT22;39919;38.160;-122.260;2023-01-19T13:12:20;5.20;99.90
54006;DHT22;39919;38.160;-122.260;2023-01-19T13:15:26;5.10;99.90
54006;DHT22;39919;38.160;-122.260;2023-01-19T13:17:58;5.20;99.90
54006;DHT22;39919;38.160;-122.260;2023-01-19T13:20:45;5.10;99.90
54006;DHT22;39919;38.160;-122.260;2023-01-19T13:23:25;5.10;99.90
54006;DHT22;39919;38.160;-122.260;2023-01-19T13:26:02;5.00;99.90
54006;DHT22;39919;38.160;-122.260;2023-01-19T13:28:39;5.00;99.90
54006;DHT22;39919;38.160;-122.260;2023-01-19T13:31:10;4.90;99.90
54006;DHT22;39919;38.160;-122.260;2023-01-19T13:33:47;4.90;99.90
54006;DHT22;39919;38.160;-122.260;2023-01-19T13:36:24;4.90;99.90
54006;DHT22;39919;38.160;-122.260;2023-01-19T13:38:57;4.80;99.90
54006;DHT22;39919;38.160;-122.260;2023-01-19T13:41:29;4.90;99.90
54006;DHT22;39919;38.160;-122.260;2023-01-19T13:44:01;4.80;99.90
54006;DHT22;39919;38.160;-122.260;2023-01-19T13:46:31;4.80;99.90
54006;DHT22;39919;38.160;-122.260;2023-01-19T13:49:11;4.80;99.90
54006;DHT22;39919;38.160;-122.260;2023-01-19T13:51:42;4.80;99.90
54006;DHT22;39919;38.160;-122.260;2023-01-19T13:54:15;4.70;99.90
54006;DHT22;39919;38.160;-122.260;2023-01-19T13:56:47;4.70;99.90
54006;DHT22;39919;38.160;-122.260;2023-01-19T13:59:17;4.70;99.90
54006;DHT22;39919;38.160;-122.260;2023-01-19T14:01:47;4.70;99.90
54006;DHT22;39919;38.160;-122.260;2023-01-19T14:04:27;4.70;99.90
54006;DHT22;39919;38.160;-122.260;2023-01-19T14:06:58;4.70;99.90
54006;DHT22;39919;38.160;-122.260;2023-01-19T14:09:31;4.60;99.90
54006;DHT22;39919;38.160;-122.260;2023-01-19T14:12:08;4.60;99.90
54006;DHT22;39919;38.160;-122.260;2023-01-19T14:14:38;4.60;99.90
54006;DHT22;39919;38.160;-122.260;2023-01-19T14:17:23;4.60;99.90
54006;DHT22;39919;38.160;-122.260;2023-01-19T14:19:58;4.60;99.90
54006;DHT22;39919;38.160;-122.260;2023-01-19T14:22:39;4.60;99.90
54006;DHT22;39919;38.160;-122.260;2023-01-19T14:25:26;4.50;99.90
54006;DHT22;39919;38.160;-122.260;2023-01-19T14:28:25;4.50;99.90
54006;DHT22;39919;38.160;-122.260;2023-01-19T14:30:55;4.50;99.90
54006;DHT22;39919;38.160;-122.260;2023-01-19T14:33:35;4.50;99.90
54006;DHT22;39919;38.160;-122.260;2023-01-19T14:36:31;4.50;99.90
54006;DHT22;39919;38.160;-122.260;2023-01-19T14:39:02;4.50;99.90
54006;DHT22;39919;38.160;-122.260;2023-01-19T14:41:42;4.50;99.90
54006;DHT22;39919;38.160;-122.260;2023-01-19T14:44:18;4.50;99.90
54006;DHT22;39919;38.160;-122.260;2023-01-19T14:46:51;4.50;99.90
54006;DHT22;39919;38.160;-122.260;2023-01-19T14:49:22;4.50;99.90
54006;DHT22;39919;38.160;-122.260;2023-01-19T14:51:57;4.50;99.90
54006;DHT22;39919;38.160;-122.260;2023-01-19T14:54:31;4.50;99.90
54006;DHT22;39919;38.160;-122.260;2023-01-19T14:57:07;4.50;99.90
54006;DHT22;39919;38.160;-122.260;2023-01-19T14:59:38;4.50;99.90
54006;DHT22;39919;38.160;-122.260;2023-01-19T15:02:08;4.50;99.90
54006;DHT22;39919;38.160;-122.260;2023-01-19T15:04:37;4.50;99.90
54006;DHT22;39919;38.160;-122.260;2023-01-19T15:07:14;4.50;99.90
54006;DHT22;39919;38.160;-122.260;2023-01-19T15:09:45;4.50;99.90
54006;DHT22;39919;38.160;-122.260;2023-01-19T15:12:16;4.40;99.90
54006;DHT22;39919;38.160;-122.260;2023-01-19T15:14:46;4.40;99.90
54006;DHT22;39919;38.160;-122.260;2023-01-19T15:17:17;4.40;99.90
54006;DHT22;39919;38.160;-122.260;2023-01-19T15:19:52;4.40;99.90
54006;DHT22;39919;38.160;-122.260;2023-01-19T15:22:25;4.30;99.90
54006;DHT22;39919;38.160;-122.260;2023-01-19T15:24:55;4.30;99.90
54006;DHT22;39919;38.160;-122.260;2023-01-19T15:27:27;4.30;99.90
54006;DHT22;39919;38.160;-122.260;2023-01-19T15:29:58;4.30;99.90
54006;DHT22;39919;38.160;-122.260;2023-01-19T15:32:28;4.30;99.90
54006;DHT22;39919;38.160;-122.260;2023-01-19T15:34:57;4.30;99.90